Glenrock, WY (82637)

7:03 AM MDT on September 02, 2014 (GMT -0600)
WYDOT | Change Station
CLOSE
Current Station
Personal Weather Station
Location: Glenrock, WY
Elevation: 5064 ft
Nearby Weather Stations

Elev 5064 ft 42.84 °N, 105.86 °W | Updated 2 days ago

Clear
Clear
52 °F
Feels Like 52 °F
N
9
Wind Variable Wind from SW
Gusts 9 mph

Today
High -- | Low -- °F
--% Chance of Precip.
Yesterday
High -- | Low -- °F
Precip. -- in
6:28 AM 7:35 PM
Waxing Crescent, 51% visible
Pressure 30.07 in
Visibility 1.2 miles
Clouds Scattered Clouds 100 ft
Dew Point 34 °F
Humidity 50%
Rainfall -999.00 in
Snow Depth Not available.
UV 0 out of 12
Pollen 8.50 out of 12
Air Quality Not available.
Flu Activity Not available.
SPECI KDGW 021259Z AUTO 00000KT 1 1/4SM BR SCT001 05/04 A3007 RMK AO2 T00500044

More Conditions Fewer Conditions

Pressure 30.07 in
Visibility 1.2 miles
Clouds Scattered Clouds 100 ft
Dew Point 34 °F
Humidity 50%
Rainfall -999.00 in
Snow Depth Not available.
UV 0 out of 12
Pollen 8.50 out of 12
Air Quality Not available.
Flu Activity Not available.
SPECI KDGW 021259Z AUTO 00000KT 1 1/4SM BR SCT001 05/04 A3007 RMK AO2 T00500044

More Conditions Fewer Conditions

10-Day Weather Forecast

Almanac

Astronomy

Sep. 02, 2014 Rise Set
Actual Time 6:28 AM MDT 7:35 PM MDT
Civil Twilight 5:59 AM MDT 8:04 PM MDT
Nautical Twilight 5:25 AM MDT 8:39 PM MDT
Astronomical Twilight 4:48 AM MDT 9:15 PM MDT
Moon 2:25 PM MDT No Moon Set
Length of Visible Light 14h 04m
Length of Day
13h 06m
Tomorrow will be 2m 48s shorter.
Waxing Crescent, 51% of the Moon is Illuminated
Today
Waxing Crescent
Sep 8
Full
Sep 15
Last Quarter
Sep 24
New
Oct 1
First Quarter

Today's Extremes

State Highs State Lows

Community

WunderPhotos

Upload Photos

1,749,648 photos uploaded!

Nearby

Snow Depth

Station Depth Elevation
Reno Hill 0 in 8500 ft
Laprele Creek 0 in 8375 ft
Casper Mountain 1 in 7850 ft
Windy Peak 0 in 7900 ft
Grave Springs 0 in 8550 ft

Earthquake Activity

City Distance Mag. Time & Date
No recent earthquake activity has been reported nearby.
Minimum magnitude displayed is 2.5.

Coastal Water Temperatures

Place Temperature
No Stations Reporting

Nearby Weather Stations